createdAt,value
2019-02-11T00:00:13.992Z,4.80
2019-02-11T00:04:22.048Z,4.90
2019-02-11T00:08:31.893Z,5.00
2019-02-11T00:12:39.788Z,5.20
2019-02-11T00:16:46.528Z,5.20
2019-02-11T00:20:53.301Z,5.20
2019-02-11T00:24:59.779Z,5.10
2019-02-11T00:29:07.423Z,4.80
2019-02-11T00:33:16.133Z,5.20
2019-02-11T00:37:22.692Z,5.20
2019-02-11T00:41:28.978Z,5.20
2019-02-11T00:45:37.095Z,5.10
2019-02-11T00:49:43.824Z,5.10
2019-02-11T00:57:58.937Z,5.30
2019-02-11T01:02:08.360Z,5.30
2019-02-11T01:06:33.881Z,5.30
2019-02-11T01:10:40.582Z,5.30
2019-02-11T01:14:46.935Z,5.20
2019-02-11T01:18:54.283Z,5.20
2019-02-11T01:23:00.801Z,5.40
2019-02-11T01:27:08.820Z,5.60
2019-02-11T01:31:15.266Z,6.20
2019-02-11T01:35:22.173Z,5.50
2019-02-11T01:39:32.062Z,5.40
2019-02-11T01:43:37.849Z,5.40
2019-02-11T01:47:45.652Z,5.30
2019-02-11T01:51:55.115Z,5.50
2019-02-11T01:56:02.989Z,5.30
2019-02-11T02:00:14.311Z,5.30
2019-02-11T02:04:20.723Z,5.30
2019-02-11T02:08:28.571Z,5.30
2019-02-11T02:12:35.940Z,5.20
2019-02-11T02:16:43.890Z,5.00
2019-02-11T02:20:51.713Z,4.90
2019-02-11T02:25:05.056Z,4.80
2019-02-11T02:29:14.874Z,4.90
2019-02-11T02:33:21.545Z,5.10
2019-02-11T02:37:27.854Z,5.10
2019-02-11T02:41:42.281Z,5.00
2019-02-11T02:50:00.508Z,4.70
2019-02-11T02:54:06.898Z,4.80
2019-02-11T02:58:14.568Z,5.00
2019-02-11T03:02:21.152Z,5.00
2019-02-11T03:06:27.706Z,5.00
2019-02-11T03:10:35.165Z,4.90
2019-02-11T03:14:42.216Z,5.00
2019-02-11T03:18:48.504Z,4.90
2019-02-11T03:23:18.236Z,4.80
2019-02-11T03:27:24.577Z,4.80
2019-02-11T03:31:34.373Z,4.90
2019-02-11T03:35:40.776Z,5.00
2019-02-11T03:39:47.640Z,5.00
2019-02-11T03:43:57.555Z,5.00
2019-02-11T03:48:04.225Z,5.20
2019-02-11T03:52:16.777Z,5.20
2019-02-11T03:56:23.423Z,5.60
2019-02-11T04:00:35.110Z,5.60
2019-02-11T04:04:42.134Z,5.70
2019-02-11T04:08:48.708Z,5.50
2019-02-11T04:12:55.909Z,5.70
2019-02-11T04:17:02.725Z,5.70
2019-02-11T04:21:12.078Z,5.80
2019-02-11T04:25:20.389Z,5.80
2019-02-11T04:29:27.863Z,5.80
2019-02-11T04:33:33.555Z,5.60
2019-02-11T04:37:41.640Z,5.60
2019-02-11T04:41:48.001Z,5.50
2019-02-11T04:45:55.884Z,5.70
2019-02-11T04:50:02.208Z,5.80
2019-02-11T04:58:19.823Z,6.00
2019-02-11T05:02:26.360Z,6.10
2019-02-11T05:11:41.376Z,6.20
2019-02-11T05:15:47.783Z,6.20
2019-02-11T05:19:55.480Z,6.10
2019-02-11T05:24:05.717Z,6.20
2019-02-11T05:28:15.676Z,6.10
2019-02-11T05:32:22.125Z,6.10
2019-02-11T05:36:28.764Z,6.20
2019-02-11T05:40:35.194Z,6.20
2019-02-11T05:44:53.273Z,6.30
2019-02-11T05:48:53.837Z,6.20
2019-02-11T05:53:00.476Z,6.30
2019-02-11T05:57:07.413Z,6.20
2019-02-11T06:01:20.800Z,6.30
2019-02-11T06:05:27.403Z,6.40
2019-02-11T06:09:37.111Z,6.40
2019-02-11T06:13:44.162Z,6.30
2019-02-11T06:17:52.487Z,6.40
2019-02-11T06:21:58.921Z,6.40
2019-02-11T06:26:06.955Z,6.40
2019-02-11T06:30:13.773Z,6.30
2019-02-11T06:34:21.111Z,6.30
2019-02-11T06:38:27.729Z,6.20
2019-02-11T06:42:36.373Z,6.30
2019-02-11T06:46:42.680Z,6.30
2019-02-11T06:50:52.459Z,6.30
2019-02-11T06:54:57.895Z,6.30
2019-02-11T06:59:05.913Z,7.50
2019-02-11T07:03:13.653Z,6.30
2019-02-11T07:07:21.430Z,6.40
2019-02-11T07:11:27.794Z,6.20
2019-02-11T07:15:35.933Z,6.30
2019-02-11T07:19:42.277Z,8.00
2019-02-11T07:23:49.764Z,6.40
2019-02-11T07:27:57.803Z,6.60
2019-02-11T07:32:04.508Z,6.70
2019-02-11T07:36:12.179Z,6.90
2019-02-11T07:40:19.627Z,6.90
2019-02-11T07:44:32.385Z,7.10
2019-02-11T07:48:39.032Z,7.10
2019-02-11T07:52:45.331Z,7.20
2019-02-11T07:56:54.692Z,7.30
2019-02-11T08:01:01.666Z,7.10
2019-02-11T08:05:08.206Z,7.10
2019-02-11T08:09:15.421Z,7.10
2019-02-11T08:13:23.102Z,7.10
2019-02-11T08:21:39.719Z,7.00
2019-02-11T08:25:47.374Z,7.10
2019-02-11T08:30:34.095Z,7.20
2019-02-11T08:34:40.521Z,7.30
2019-02-11T08:38:47.001Z,7.30
2019-02-11T08:42:55.806Z,7.30
2019-02-11T08:47:02.533Z,7.30
2019-02-11T08:51:13.315Z,7.20
2019-02-11T08:55:22.469Z,7.20
2019-02-11T08:59:29.638Z,7.20
2019-02-11T09:03:47.153Z,7.40
2019-02-11T09:07:53.826Z,7.40
2019-02-11T09:12:01.822Z,7.40
2019-02-11T09:16:08.087Z,7.40
2019-02-11T09:20:17.145Z,7.40
2019-02-11T09:24:23.472Z,7.20
2019-02-11T09:28:29.940Z,7.30
2019-02-11T09:32:39.952Z,7.30
2019-02-11T09:36:47.129Z,7.40
2019-02-11T09:40:54.116Z,7.60
2019-02-11T09:45:02.866Z,7.80
2019-02-11T09:49:09.226Z,7.90
2019-02-11T09:53:16.547Z,7.80
2019-02-11T09:57:22.964Z,7.70
2019-02-11T10:01:29.477Z,7.70
2019-02-11T10:05:37.392Z,7.70
2019-02-11T10:09:44.182Z,7.70
2019-02-11T10:13:55.306Z,7.80
2019-02-11T10:18:03.270Z,7.70
2019-02-11T10:22:09.698Z,7.70
2019-02-11T10:26:40.275Z,7.70
2019-02-11T10:30:46.646Z,8.00
2019-02-11T10:35:14.974Z,8.30
2019-02-11T10:39:21.404Z,8.70
2019-02-11T10:43:28.084Z,8.90
2019-02-11T10:47:35.981Z,9.00
2019-02-11T10:51:42.633Z,8.90
2019-02-11T10:55:48.924Z,8.80
2019-02-11T10:59:57.346Z,8.60
2019-02-11T11:04:03.710Z,8.50
2019-02-11T11:08:12.623Z,8.50
2019-02-11T11:12:19.945Z,8.40
2019-02-11T11:16:29.843Z,8.40
2019-02-11T11:20:37.708Z,8.20
2019-02-11T11:24:46.356Z,8.20
2019-02-11T11:28:55.049Z,8.20
2019-02-11T11:33:02.911Z,8.30
2019-02-11T11:37:09.565Z,8.40
2019-02-11T11:41:15.772Z,8.40
2019-02-11T11:45:23.109Z,8.50
2019-02-11T11:49:32.163Z,8.80
2019-02-11T11:53:40.078Z,8.40
2019-02-11T11:57:46.660Z,8.20
2019-02-11T12:01:57.373Z,8.00
2019-02-11T12:06:05.116Z,7.90
2019-02-11T12:10:13.837Z,7.90
2019-02-11T12:14:20.782Z,7.90
2019-02-11T12:18:28.676Z,7.80
2019-02-11T12:22:57.076Z,7.20
2019-02-11T12:27:03.452Z,7.20
2019-02-11T12:31:11.768Z,6.30
2019-02-11T12:35:13.645Z,6.10
2019-02-11T12:39:20.831Z,6.00
2019-02-11T12:43:29.522Z,6.00
2019-02-11T12:47:36.764Z,5.90
2019-02-11T12:51:43.049Z,5.90
2019-02-11T12:55:51.936Z,5.80
2019-02-11T12:59:58.517Z,5.80
2019-02-11T13:04:06.215Z,5.40
2019-02-11T13:08:14.201Z,5.50
2019-02-11T13:12:21.068Z,5.30
2019-02-11T13:16:28.539Z,5.20
2019-02-11T13:20:55.499Z,5.20
2019-02-11T13:25:07.688Z,5.10
2019-02-11T13:29:16.001Z,5.00
2019-02-11T13:33:22.933Z,4.90
2019-02-11T13:37:31.824Z,4.80
2019-02-11T13:41:39.672Z,4.70
2019-02-11T13:45:49.106Z,4.70
2019-02-11T13:49:55.601Z,4.80
2019-02-11T13:54:01.943Z,4.80
2019-02-11T13:58:08.657Z,4.80
2019-02-11T14:02:41.693Z,4.80
2019-02-11T14:06:48.342Z,4.80
2019-02-11T14:10:55.980Z,4.80
2019-02-11T14:15:04.867Z,4.70
2019-02-11T14:19:13.527Z,4.80
2019-02-11T14:23:20.167Z,4.80
2019-02-11T14:27:26.697Z,4.60
2019-02-11T14:31:36.424Z,4.40
2019-02-11T14:35:43.985Z,4.20
2019-02-11T14:43:56.315Z,4.20
2019-02-11T14:48:03.154Z,4.20
2019-02-11T14:52:13.000Z,3.90
2019-02-11T14:56:15.777Z,4.00
2019-02-11T15:00:25.237Z,3.90
2019-02-11T15:08:39.700Z,4.10
2019-02-11T15:12:46.110Z,4.10
2019-02-11T15:16:53.807Z,4.10
2019-02-11T15:21:00.103Z,4.00
2019-02-11T15:25:10.052Z,4.10
2019-02-11T15:29:18.741Z,4.10
2019-02-11T15:33:25.294Z,4.10
2019-02-11T15:37:33.820Z,3.90
2019-02-11T15:41:41.417Z,4.30
2019-02-11T15:45:47.829Z,4.40
2019-02-11T15:49:56.273Z,4.50
2019-02-11T15:54:02.755Z,4.40
2019-02-11T15:58:09.744Z,4.40
2019-02-11T16:02:14.654Z,4.50
2019-02-11T16:06:21.179Z,5.80
2019-02-11T16:10:28.192Z,4.40
2019-02-11T16:14:38.864Z,4.40
2019-02-11T16:18:51.839Z,4.50
2019-02-11T16:22:56.411Z,4.50
2019-02-11T16:27:02.825Z,4.40
2019-02-11T16:31:13.322Z,4.40
2019-02-11T16:35:19.662Z,4.40
2019-02-11T16:39:26.586Z,4.50
2019-02-11T16:43:35.603Z,4.50
2019-02-11T16:47:45.025Z,4.60
2019-02-11T16:51:52.606Z,4.60
2019-02-11T16:56:00.044Z,4.50
2019-02-11T17:00:07.784Z,4.70
2019-02-11T17:04:15.065Z,4.70
2019-02-11T17:08:18.911Z,3.00
2019-02-11T17:12:25.524Z,4.70
2019-02-11T17:16:31.924Z,4.70
2019-02-11T17:20:45.978Z,4.70
2019-02-11T17:24:52.661Z,4.70
2019-02-11T17:29:00.184Z,4.50
2019-02-11T17:33:06.563Z,4.20
2019-02-11T17:41:22.707Z,4.10
2019-02-11T17:45:31.524Z,4.10
2019-02-11T17:49:38.652Z,3.80
2019-02-11T17:53:45.767Z,4.00
2019-02-11T17:57:52.295Z,4.20
2019-02-11T18:02:00.753Z,4.30
2019-02-11T18:06:07.130Z,4.20
2019-02-11T18:10:16.735Z,4.20
2019-02-11T18:14:27.134Z,4.20
2019-02-11T18:18:33.971Z,4.40
2019-02-11T18:23:01.516Z,4.30
2019-02-11T18:27:10.661Z,4.40
2019-02-11T18:31:19.131Z,4.40
2019-02-11T18:35:26.031Z,4.20
2019-02-11T18:39:32.535Z,4.30
2019-02-11T18:43:41.677Z,4.50
2019-02-11T18:47:48.069Z,4.40
2019-02-11T18:51:54.844Z,4.60
2019-02-11T18:56:01.598Z,4.60
2019-02-11T19:00:09.315Z,4.50
2019-02-11T19:04:39.877Z,4.40
2019-02-11T19:08:46.920Z,4.40
2019-02-11T19:12:53.298Z,4.40
2019-02-11T19:17:02.208Z,4.20
2019-02-11T19:21:08.575Z,4.10
2019-02-11T19:29:23.691Z,3.90
2019-02-11T19:33:30.790Z,3.90
2019-02-11T19:37:59.407Z,3.80
2019-02-11T19:42:07.321Z,3.60
2019-02-11T19:46:13.677Z,3.60
2019-02-11T19:50:42.087Z,3.50
2019-02-11T19:54:50.192Z,3.60
2019-02-11T19:58:58.192Z,3.60
2019-02-11T20:03:05.044Z,3.60
2019-02-11T20:07:13.904Z,3.60
2019-02-11T20:11:41.587Z,3.30
2019-02-11T20:15:48.498Z,3.30
2019-02-11T20:20:00.140Z,3.10
2019-02-11T20:24:04.322Z,3.10
2019-02-11T20:28:10.808Z,3.00
2019-02-11T20:32:18.097Z,2.90
2019-02-11T20:36:24.871Z,3.00
2019-02-11T20:40:33.008Z,2.90
2019-02-11T20:44:40.896Z,3.00
2019-02-11T20:48:48.280Z,2.90
2019-02-11T20:57:45.240Z,2.80
2019-02-11T21:01:51.551Z,2.90
2019-02-11T21:06:01.209Z,2.60
2019-02-11T21:10:08.556Z,2.40
2019-02-11T21:14:16.790Z,2.70
2019-02-11T21:18:23.234Z,2.40
2019-02-11T21:22:33.692Z,2.50
2019-02-11T21:27:01.161Z,2.40
2019-02-11T21:31:07.722Z,2.30
2019-02-11T21:35:14.155Z,2.20
2019-02-11T21:39:43.046Z,2.10
2019-02-11T21:43:51.422Z,2.10
2019-02-11T21:47:59.096Z,2.10
2019-02-11T21:52:05.478Z,2.20
2019-02-11T21:56:13.028Z,2.20
2019-02-11T22:00:19.919Z,2.30
2019-02-11T22:04:26.258Z,2.20
2019-02-11T22:08:32.657Z,2.20
2019-02-11T22:12:40.136Z,2.30
2019-02-11T22:16:48.006Z,2.40
2019-02-11T22:20:55.429Z,2.40
2019-02-11T22:25:26.304Z,2.50
2019-02-11T22:29:33.899Z,2.50
2019-02-11T22:33:40.315Z,2.50
2019-02-11T22:37:50.270Z,2.60
2019-02-11T22:41:56.560Z,2.40
2019-02-11T22:46:05.392Z,2.50
2019-02-11T22:50:12.243Z,2.60
2019-02-11T22:54:18.847Z,2.80
2019-02-11T22:58:46.423Z,2.70
2019-02-11T23:02:53.471Z,2.60
2019-02-11T23:07:00.147Z,2.60
2019-02-11T23:11:10.179Z,2.50
2019-02-11T23:15:19.599Z,2.50
2019-02-11T23:19:26.549Z,2.50
2019-02-11T23:23:33.203Z,2.40
2019-02-11T23:27:43.406Z,2.50
2019-02-11T23:31:50.011Z,2.50
2019-02-11T23:35:58.445Z,2.50
2019-02-11T23:40:07.289Z,2.40
2019-02-11T23:44:13.732Z,2.40
2019-02-11T23:48:20.410Z,2.30
2019-02-11T23:52:29.446Z,2.40
2019-02-11T23:56:35.852Z,2.40
